sensor_id;sensor_type;location;lat;lon;timestamp;temperature;humidity
57242;DHT22;43095;53.302;5.786;2024-03-17T00:01:42;3.50;90.50
57242;DHT22;43095;53.302;5.786;2024-03-17T00:04:17;3.50;90.60
57242;DHT22;43095;53.302;5.786;2024-03-17T00:06:45;3.50;90.80
57242;DHT22;43095;53.302;5.786;2024-03-17T00:09:11;3.50;90.90
57242;DHT22;43095;53.302;5.786;2024-03-17T00:11:39;3.50;91.00
57242;DHT22;43095;53.302;5.786;2024-03-17T00:14:05;3.40;91.10
57242;DHT22;43095;53.302;5.786;2024-03-17T00:16:32;3.40;91.20
57242;DHT22;43095;53.302;5.786;2024-03-17T00:18:58;3.30;91.30
57242;DHT22;43095;53.302;5.786;2024-03-17T00:21:25;3.30;91.50
57242;DHT22;43095;53.302;5.786;2024-03-17T00:23:52;3.30;91.50
57242;DHT22;43095;53.302;5.786;2024-03-17T00:26:19;3.30;91.60
57242;DHT22;43095;53.302;5.786;2024-03-17T00:28:50;3.30;91.70
57242;DHT22;43095;53.302;5.786;2024-03-17T00:31:17;3.30;91.80
57242;DHT22;43095;53.302;5.786;2024-03-17T00:33:46;3.20;91.90
57242;DHT22;43095;53.302;5.786;2024-03-17T00:36:12;3.20;92.00
57242;DHT22;43095;53.302;5.786;2024-03-17T00:38:48;3.20;92.10
57242;DHT22;43095;53.302;5.786;2024-03-17T00:41:18;3.10;92.20
57242;DHT22;43095;53.302;5.786;2024-03-17T00:43:45;3.10;92.30
57242;DHT22;43095;53.302;5.786;2024-03-17T00:46:11;3.10;92.40
57242;DHT22;43095;53.302;5.786;2024-03-17T00:48:40;3.10;92.50
57242;DHT22;43095;53.302;5.786;2024-03-17T00:51:10;3.10;92.60
57242;DHT22;43095;53.302;5.786;2024-03-17T00:53:36;3.10;92.60
57242;DHT22;43095;53.302;5.786;2024-03-17T00:56:05;3.00;92.60
57242;DHT22;43095;53.302;5.786;2024-03-17T00:58:33;3.00;92.70
57242;DHT22;43095;53.302;5.786;2024-03-17T01:01:00;3.00;92.80
57242;DHT22;43095;53.302;5.786;2024-03-17T01:03:26;3.00;92.90
57242;DHT22;43095;53.302;5.786;2024-03-17T01:06:02;2.90;93.00
57242;DHT22;43095;53.302;5.786;2024-03-17T01:08:40;2.90;93.20
57242;DHT22;43095;53.302;5.786;2024-03-17T01:11:06;2.90;93.30
57242;DHT22;43095;53.302;5.786;2024-03-17T01:13:38;2.90;93.40
57242;DHT22;43095;53.302;5.786;2024-03-17T01:16:18;2.80;93.60
57242;DHT22;43095;53.302;5.786;2024-03-17T01:18:44;2.80;93.70
57242;DHT22;43095;53.302;5.786;2024-03-17T01:21:17;2.80;93.70
57242;DHT22;43095;53.302;5.786;2024-03-17T01:23:48;2.80;93.80
57242;DHT22;43095;53.302;5.786;2024-03-17T01:26:17;2.80;94.00
57242;DHT22;43095;53.302;5.786;2024-03-17T01:28:51;2.70;94.20
57242;DHT22;43095;53.302;5.786;2024-03-17T01:31:20;2.70;94.20
57242;DHT22;43095;53.302;5.786;2024-03-17T01:33:57;2.60;94.40
57242;DHT22;43095;53.302;5.786;2024-03-17T01:36:26;2.60;94.50
57242;DHT22;43095;53.302;5.786;2024-03-17T01:38:55;2.60;94.60
57242;DHT22;43095;53.302;5.786;2024-03-17T01:41:21;2.60;94.80
57242;DHT22;43095;53.302;5.786;2024-03-17T01:43:47;2.50;94.90
57242;DHT22;43095;53.302;5.786;2024-03-17T01:46:14;2.50;95.00
57242;DHT22;43095;53.302;5.786;2024-03-17T01:48:41;2.50;95.10
57242;DHT22;43095;53.302;5.786;2024-03-17T01:51:10;2.50;95.20
57242;DHT22;43095;53.302;5.786;2024-03-17T01:53:39;2.50;95.30
57242;DHT22;43095;53.302;5.786;2024-03-17T01:56:10;2.50;95.40
57242;DHT22;43095;53.302;5.786;2024-03-17T01:58:37;2.50;95.50
57242;DHT22;43095;53.302;5.786;2024-03-17T02:01:06;2.50;95.60
57242;DHT22;43095;53.302;5.786;2024-03-17T02:03:32;2.50;95.70
57242;DHT22;43095;53.302;5.786;2024-03-17T02:06:02;2.50;95.80
57242;DHT22;43095;53.302;5.786;2024-03-17T02:08:28;2.50;96.00
57242;DHT22;43095;53.302;5.786;2024-03-17T02:10:58;2.50;96.10
57242;DHT22;43095;53.302;5.786;2024-03-17T02:13:24;2.50;96.20
57242;DHT22;43095;53.302;5.786;2024-03-17T02:15:52;2.50;96.30
57242;DHT22;43095;53.302;5.786;2024-03-17T02:18:23;2.50;96.40
57242;DHT22;43095;53.302;5.786;2024-03-17T02:20:55;2.50;96.50
57242;DHT22;43095;53.302;5.786;2024-03-17T02:23:23;2.50;96.60
57242;DHT22;43095;53.302;5.786;2024-03-17T02:25:55;2.60;96.70
57242;DHT22;43095;53.302;5.786;2024-03-17T02:28:24;2.70;96.80
57242;DHT22;43095;53.302;5.786;2024-03-17T02:30:50;2.70;96.90
57242;DHT22;43095;53.302;5.786;2024-03-17T02:33:16;2.70;97.20
57242;DHT22;43095;53.302;5.786;2024-03-17T02:35:45;2.80;97.30
57242;DHT22;43095;53.302;5.786;2024-03-17T02:38:15;2.80;97.40
57242;DHT22;43095;53.302;5.786;2024-03-17T02:41:01;2.90;97.50
57242;DHT22;43095;53.302;5.786;2024-03-17T02:43:28;2.90;97.60
57242;DHT22;43095;53.302;5.786;2024-03-17T02:45:54;2.90;97.70
57242;DHT22;43095;53.302;5.786;2024-03-17T02:48:23;3.00;97.80
57242;DHT22;43095;53.302;5.786;2024-03-17T02:50:51;3.00;97.90
57242;DHT22;43095;53.302;5.786;2024-03-17T02:53:18;3.10;97.90
57242;DHT22;43095;53.302;5.786;2024-03-17T02:55:45;3.10;98.00
57242;DHT22;43095;53.302;5.786;2024-03-17T02:58:11;3.10;98.10
57242;DHT22;43095;53.302;5.786;2024-03-17T03:00:37;3.20;98.20
57242;DHT22;43095;53.302;5.786;2024-03-17T03:03:04;3.30;98.20
57242;DHT22;43095;53.302;5.786;2024-03-17T03:05:30;3.30;98.20
57242;DHT22;43095;53.302;5.786;2024-03-17T03:07:57;3.30;98.20
57242;DHT22;43095;53.302;5.786;2024-03-17T03:10:23;3.40;98.30
57242;DHT22;43095;53.302;5.786;2024-03-17T03:12:49;3.50;98.30
57242;DHT22;43095;53.302;5.786;2024-03-17T03:15:16;3.50;98.40
57242;DHT22;43095;53.302;5.786;2024-03-17T03:17:42;3.50;98.30
57242;DHT22;43095;53.302;5.786;2024-03-17T03:20:10;3.50;98.40
57242;DHT22;43095;53.302;5.786;2024-03-17T03:22:37;3.50;98.40
57242;DHT22;43095;53.302;5.786;2024-03-17T03:25:04;3.60;98.40
57242;DHT22;43095;53.302;5.786;2024-03-17T03:27:32;3.60;98.40
57242;DHT22;43095;53.302;5.786;2024-03-17T03:29:59;3.60;98.50
57242;DHT22;43095;53.302;5.786;2024-03-17T03:32:25;3.70;98.60
57242;DHT22;43095;53.302;5.786;2024-03-17T03:34:52;3.70;98.60
57242;DHT22;43095;53.302;5.786;2024-03-17T03:37:18;3.70;98.60
57242;DHT22;43095;53.302;5.786;2024-03-17T03:39:44;3.70;98.70
57242;DHT22;43095;53.302;5.786;2024-03-17T03:42:11;3.80;98.60
57242;DHT22;43095;53.302;5.786;2024-03-17T03:44:37;3.80;98.70
57242;DHT22;43095;53.302;5.786;2024-03-17T03:47:03;3.90;98.70
57242;DHT22;43095;53.302;5.786;2024-03-17T03:49:30;3.90;98.70
57242;DHT22;43095;53.302;5.786;2024-03-17T03:51:58;3.90;98.70
57242;DHT22;43095;53.302;5.786;2024-03-17T03:54:24;3.90;98.70
57242;DHT22;43095;53.302;5.786;2024-03-17T03:56:51;3.90;98.70
57242;DHT22;43095;53.302;5.786;2024-03-17T03:59:17;3.90;98.80
57242;DHT22;43095;53.302;5.786;2024-03-17T04:01:43;3.90;98.80
57242;DHT22;43095;53.302;5.786;2024-03-17T04:04:09;4.00;98.90
57242;DHT22;43095;53.302;5.786;2024-03-17T04:06:37;4.00;98.90
57242;DHT22;43095;53.302;5.786;2024-03-17T04:09:04;4.00;99.00
57242;DHT22;43095;53.302;5.786;2024-03-17T04:11:33;4.10;99.00
57242;DHT22;43095;53.302;5.786;2024-03-17T04:13:59;4.10;99.00
57242;DHT22;43095;53.302;5.786;2024-03-17T04:16:29;4.10;99.10
57242;DHT22;43095;53.302;5.786;2024-03-17T04:18:57;4.10;99.20
57242;DHT22;43095;53.302;5.786;2024-03-17T04:21:23;4.20;99.20
57242;DHT22;43095;53.302;5.786;2024-03-17T04:23:49;4.20;99.30
57242;DHT22;43095;53.302;5.786;2024-03-17T04:26:15;4.30;99.30
57242;DHT22;43095;53.302;5.786;2024-03-17T04:28:41;4.30;99.30
57242;DHT22;43095;53.302;5.786;2024-03-17T04:31:08;4.30;99.40
57242;DHT22;43095;53.302;5.786;2024-03-17T04:33:37;4.40;99.40
57242;DHT22;43095;53.302;5.786;2024-03-17T04:36:03;4.40;99.40
57242;DHT22;43095;53.302;5.786;2024-03-17T04:38:33;4.40;99.60
57242;DHT22;43095;53.302;5.786;2024-03-17T04:40:59;4.40;99.50
57242;DHT22;43095;53.302;5.786;2024-03-17T04:43:33;4.40;99.50
57242;DHT22;43095;53.302;5.786;2024-03-17T04:46:01;4.50;99.60
57242;DHT22;43095;53.302;5.786;2024-03-17T04:48:30;4.50;99.60
57242;DHT22;43095;53.302;5.786;2024-03-17T04:50:58;4.50;99.60
57242;DHT22;43095;53.302;5.786;2024-03-17T04:53:28;4.50;99.60
57242;DHT22;43095;53.302;5.786;2024-03-17T04:56:02;4.50;99.70
57242;DHT22;43095;53.302;5.786;2024-03-17T04:58:33;4.50;99.70
57242;DHT22;43095;53.302;5.786;2024-03-17T05:01:09;4.50;99.60
57242;DHT22;43095;53.302;5.786;2024-03-17T05:03:35;4.50;99.50
57242;DHT22;43095;53.302;5.786;2024-03-17T05:06:03;4.50;99.50
57242;DHT22;43095;53.302;5.786;2024-03-17T05:08:32;4.50;99.50
57242;DHT22;43095;53.302;5.786;2024-03-17T05:11:07;4.50;99.60
57242;DHT22;43095;53.302;5.786;2024-03-17T05:13:35;4.50;99.50
57242;DHT22;43095;53.302;5.786;2024-03-17T05:16:02;4.50;99.50
57242;DHT22;43095;53.302;5.786;2024-03-17T05:18:31;4.50;99.50
57242;DHT22;43095;53.302;5.786;2024-03-17T05:21:05;4.50;99.50
57242;DHT22;43095;53.302;5.786;2024-03-17T05:23:36;4.50;99.60
57242;DHT22;43095;53.302;5.786;2024-03-17T05:26:03;4.50;99.60
57242;DHT22;43095;53.302;5.786;2024-03-17T05:28:33;4.50;99.60
57242;DHT22;43095;53.302;5.786;2024-03-17T05:30:59;4.50;99.60
57242;DHT22;43095;53.302;5.786;2024-03-17T05:33:26;4.50;99.70
57242;DHT22;43095;53.302;5.786;2024-03-17T05:35:54;4.50;99.70
57242;DHT22;43095;53.302;5.786;2024-03-17T05:38:22;4.60;99.70
57242;DHT22;43095;53.302;5.786;2024-03-17T05:41:03;4.60;99.80
57242;DHT22;43095;53.302;5.786;2024-03-17T05:43:34;4.60;99.80
57242;DHT22;43095;53.302;5.786;2024-03-17T05:46:04;4.60;99.80
57242;DHT22;43095;53.302;5.786;2024-03-17T05:48:39;4.60;99.80
57242;DHT22;43095;53.302;5.786;2024-03-17T05:51:10;4.60;99.80
57242;DHT22;43095;53.302;5.786;2024-03-17T05:53:47;4.60;99.70
57242;DHT22;43095;53.302;5.786;2024-03-17T05:56:13;4.50;99.70
57242;DHT22;43095;53.302;5.786;2024-03-17T05:58:42;4.50;99.70
57242;DHT22;43095;53.302;5.786;2024-03-17T06:01:08;4.50;99.70
57242;DHT22;43095;53.302;5.786;2024-03-17T06:03:35;4.50;99.70
57242;DHT22;43095;53.302;5.786;2024-03-17T06:06:02;4.50;99.70
57242;DHT22;43095;53.302;5.786;2024-03-17T06:08:29;4.50;99.70
57242;DHT22;43095;53.302;5.786;2024-03-17T06:10:56;4.50;99.70
57242;DHT22;43095;53.302;5.786;2024-03-17T06:13:30;4.50;99.80
57242;DHT22;43095;53.302;5.786;2024-03-17T06:16:01;4.50;99.80
57242;DHT22;43095;53.302;5.786;2024-03-17T06:18:28;4.50;99.90
57242;DHT22;43095;53.302;5.786;2024-03-17T06:20:59;4.50;99.90
57242;DHT22;43095;53.302;5.786;2024-03-17T06:23:26;4.60;99.90
57242;DHT22;43095;53.302;5.786;2024-03-17T06:25:52;4.60;99.90
57242;DHT22;43095;53.302;5.786;2024-03-17T06:28:21;4.60;99.90
57242;DHT22;43095;53.302;5.786;2024-03-17T06:30:58;4.70;99.90
57242;DHT22;43095;53.302;5.786;2024-03-17T06:33:26;4.70;99.90
57242;DHT22;43095;53.302;5.786;2024-03-17T06:36:02;4.70;99.90
57242;DHT22;43095;53.302;5.786;2024-03-17T06:38:32;4.70;99.90
57242;DHT22;43095;53.302;5.786;2024-03-17T06:40:59;4.70;99.80
57242;DHT22;43095;53.302;5.786;2024-03-17T06:43:32;4.80;99.80
57242;DHT22;43095;53.302;5.786;2024-03-17T06:45:59;4.80;99.80
57242;DHT22;43095;53.302;5.786;2024-03-17T06:48:27;4.90;99.70
57242;DHT22;43095;53.302;5.786;2024-03-17T06:50:54;4.90;99.70
57242;DHT22;43095;53.302;5.786;2024-03-17T06:53:22;4.90;99.70
57242;DHT22;43095;53.302;5.786;2024-03-17T06:56:07;5.00;99.70
57242;DHT22;43095;53.302;5.786;2024-03-17T06:58:35;5.00;99.70
57242;DHT22;43095;53.302;5.786;2024-03-17T07:01:02;5.00;99.60
57242;DHT22;43095;53.302;5.786;2024-03-17T07:03:32;5.00;99.60
57242;DHT22;43095;53.302;5.786;2024-03-17T07:06:01;5.10;99.60
57242;DHT22;43095;53.302;5.786;2024-03-17T07:08:31;5.10;99.50
57242;DHT22;43095;53.302;5.786;2024-03-17T07:13:32;5.20;99.50
57242;DHT22;43095;53.302;5.786;2024-03-17T07:16:00;5.30;99.40
57242;DHT22;43095;53.302;5.786;2024-03-17T07:18:28;5.30;99.40
57242;DHT22;43095;53.302;5.786;2024-03-17T07:21:13;5.30;99.30
57242;DHT22;43095;53.302;5.786;2024-03-17T07:23:39;5.50;99.30
57242;DHT22;43095;53.302;5.786;2024-03-17T07:26:06;5.50;99.20
57242;DHT22;43095;53.302;5.786;2024-03-17T07:28:38;5.50;99.10
57242;DHT22;43095;53.302;5.786;2024-03-17T07:31:08;5.50;98.90
57242;DHT22;43095;53.302;5.786;2024-03-17T07:33:35;5.60;98.70
57242;DHT22;43095;53.302;5.786;2024-03-17T07:36:01;5.70;98.60
57242;DHT22;43095;53.302;5.786;2024-03-17T07:38:29;5.70;98.50
57242;DHT22;43095;53.302;5.786;2024-03-17T07:41:04;5.80;98.40
57242;DHT22;43095;53.302;5.786;2024-03-17T07:43:35;5.80;98.30
57242;DHT22;43095;53.302;5.786;2024-03-17T07:46:08;5.90;98.00
57242;DHT22;43095;53.302;5.786;2024-03-17T07:48:41;5.90;97.90
57242;DHT22;43095;53.302;5.786;2024-03-17T07:51:13;5.90;97.80
57242;DHT22;43095;53.302;5.786;2024-03-17T07:53:41;6.00;97.60
57242;DHT22;43095;53.302;5.786;2024-03-17T07:56:16;6.00;97.50
57242;DHT22;43095;53.302;5.786;2024-03-17T07:58:43;6.10;97.30
57242;DHT22;43095;53.302;5.786;2024-03-17T08:01:14;6.10;97.20
57242;DHT22;43095;53.302;5.786;2024-03-17T08:03:45;6.20;97.10
57242;DHT22;43095;53.302;5.786;2024-03-17T08:06:19;6.20;97.00
57242;DHT22;43095;53.302;5.786;2024-03-17T08:08:46;6.30;96.90
57242;DHT22;43095;53.302;5.786;2024-03-17T08:11:12;6.40;96.70
57242;DHT22;43095;53.302;5.786;2024-03-17T08:13:41;6.40;96.50
57242;DHT22;43095;53.302;5.786;2024-03-17T08:16:07;6.40;96.20
57242;DHT22;43095;53.302;5.786;2024-03-17T08:18:35;6.50;95.90
57242;DHT22;43095;53.302;5.786;2024-03-17T08:21:02;6.60;95.60
57242;DHT22;43095;53.302;5.786;2024-03-17T08:23:33;6.60;95.50
57242;DHT22;43095;53.302;5.786;2024-03-17T08:26:08;6.70;95.40
57242;DHT22;43095;53.302;5.786;2024-03-17T08:28:35;6.70;94.80
57242;DHT22;43095;53.302;5.786;2024-03-17T08:31:03;6.80;94.70
57242;DHT22;43095;53.302;5.786;2024-03-17T08:33:30;6.80;94.50
57242;DHT22;43095;53.302;5.786;2024-03-17T08:36:00;6.90;94.10
57242;DHT22;43095;53.302;5.786;2024-03-17T08:38:31;6.90;94.00
57242;DHT22;43095;53.302;5.786;2024-03-17T08:41:05;7.00;93.80
57242;DHT22;43095;53.302;5.786;2024-03-17T08:43:33;7.00;93.70
57242;DHT22;43095;53.302;5.786;2024-03-17T08:46:01;7.00;93.20
57242;DHT22;43095;53.302;5.786;2024-03-17T08:48:33;7.00;93.20
57242;DHT22;43095;53.302;5.786;2024-03-17T08:51:02;7.20;92.90
57242;DHT22;43095;53.302;5.786;2024-03-17T08:53:29;7.20;92.80
57242;DHT22;43095;53.302;5.786;2024-03-17T08:55:57;7.30;92.90
57242;DHT22;43095;53.302;5.786;2024-03-17T08:58:29;7.50;92.80
57242;DHT22;43095;53.302;5.786;2024-03-17T09:00:55;7.50;92.50
57242;DHT22;43095;53.302;5.786;2024-03-17T09:03:22;7.60;92.20
57242;DHT22;43095;53.302;5.786;2024-03-17T09:05:57;7.70;92.10
57242;DHT22;43095;53.302;5.786;2024-03-17T09:08:24;7.80;91.90
57242;DHT22;43095;53.302;5.786;2024-03-17T09:10:55;7.80;91.70
57242;DHT22;43095;53.302;5.786;2024-03-17T09:13:25;8.00;91.40
57242;DHT22;43095;53.302;5.786;2024-03-17T09:15:53;8.00;91.10
57242;DHT22;43095;53.302;5.786;2024-03-17T09:18:23;8.00;90.70
57242;DHT22;43095;53.302;5.786;2024-03-17T09:21:25;8.10;90.60
57242;DHT22;43095;53.302;5.786;2024-03-17T09:24:10;8.20;90.40
57242;DHT22;43095;53.302;5.786;2024-03-17T09:26:47;8.20;90.30
57242;DHT22;43095;53.302;5.786;2024-03-17T09:29:14;8.30;89.90
57242;DHT22;43095;53.302;5.786;2024-03-17T09:31:53;8.40;89.60
57242;DHT22;43095;53.302;5.786;2024-03-17T09:34:20;8.40;89.30
57242;DHT22;43095;53.302;5.786;2024-03-17T09:36:46;8.40;89.00
57242;DHT22;43095;53.302;5.786;2024-03-17T09:39:13;8.40;88.60
57242;DHT22;43095;53.302;5.786;2024-03-17T09:41:40;8.50;88.60
57242;DHT22;43095;53.302;5.786;2024-03-17T09:44:11;8.50;88.70
57242;DHT22;43095;53.302;5.786;2024-03-17T09:46:41;8.50;88.60
57242;DHT22;43095;53.302;5.786;2024-03-17T09:49:17;8.50;88.60
57242;DHT22;43095;53.302;5.786;2024-03-17T09:51:44;8.60;88.40
57242;DHT22;43095;53.302;5.786;2024-03-17T09:54:17;8.60;88.40
57242;DHT22;43095;53.302;5.786;2024-03-17T09:56:47;8.60;88.20
57242;DHT22;43095;53.302;5.786;2024-03-17T09:59:13;8.60;88.00
57242;DHT22;43095;53.302;5.786;2024-03-17T10:01:39;8.60;87.90
57242;DHT22;43095;53.302;5.786;2024-03-17T10:04:06;8.60;87.80
57242;DHT22;43095;53.302;5.786;2024-03-17T10:06:45;8.60;87.70
57242;DHT22;43095;53.302;5.786;2024-03-17T10:09:17;8.60;87.60
57242;DHT22;43095;53.302;5.786;2024-03-17T10:11:47;8.60;87.80
57242;DHT22;43095;53.302;5.786;2024-03-17T10:14:16;8.60;87.60
57242;DHT22;43095;53.302;5.786;2024-03-17T10:16:43;8.60;87.90
57242;DHT22;43095;53.302;5.786;2024-03-17T10:19:21;8.60;87.80
57242;DHT22;43095;53.302;5.786;2024-03-17T10:21:49;8.60;88.00
57242;DHT22;43095;53.302;5.786;2024-03-17T10:26:54;8.70;88.00
57242;DHT22;43095;53.302;5.786;2024-03-17T10:29:32;8.80;88.00
57242;DHT22;43095;53.302;5.786;2024-03-17T10:32:13;8.80;87.80
57242;DHT22;43095;53.302;5.786;2024-03-17T10:34:43;8.80;87.80
57242;DHT22;43095;53.302;5.786;2024-03-17T10:37:21;8.80;87.80
57242;DHT22;43095;53.302;5.786;2024-03-17T10:39:53;8.90;87.80
57242;DHT22;43095;53.302;5.786;2024-03-17T10:42:38;8.90;87.50
57242;DHT22;43095;53.302;5.786;2024-03-17T10:45:08;8.90;87.70
57242;DHT22;43095;53.302;5.786;2024-03-17T10:47:35;9.00;87.70
57242;DHT22;43095;53.302;5.786;2024-03-17T10:50:01;9.00;87.70
57242;DHT22;43095;53.302;5.786;2024-03-17T10:52:33;9.00;87.40
57242;DHT22;43095;53.302;5.786;2024-03-17T10:55:07;9.10;87.20
57242;DHT22;43095;53.302;5.786;2024-03-17T11:00:04;9.20;87.10
57242;DHT22;43095;53.302;5.786;2024-03-17T11:02:36;9.20;86.90
57242;DHT22;43095;53.302;5.786;2024-03-17T11:08:05;9.40;87.10
57242;DHT22;43095;53.302;5.786;2024-03-17T11:10:35;9.50;86.40
57242;DHT22;43095;53.302;5.786;2024-03-17T11:13:04;9.60;86.50
57242;DHT22;43095;53.302;5.786;2024-03-17T11:23:41;10.00;84.90
57242;DHT22;43095;53.302;5.786;2024-03-17T11:26:08;10.10;84.10
57242;DHT22;43095;53.302;5.786;2024-03-17T11:28:46;10.10;83.50
57242;DHT22;43095;53.302;5.786;2024-03-17T11:34:05;10.30;83.50
57242;DHT22;43095;53.302;5.786;2024-03-17T11:36:37;10.30;83.00
57242;DHT22;43095;53.302;5.786;2024-03-17T11:39:06;10.30;82.80
57242;DHT22;43095;53.302;5.786;2024-03-17T11:41:53;10.40;82.70
57242;DHT22;43095;53.302;5.786;2024-03-17T11:49:38;10.60;82.10
57242;DHT22;43095;53.302;5.786;2024-03-17T11:52:12;10.80;81.90
57242;DHT22;43095;53.302;5.786;2024-03-17T11:54:41;10.90;81.50
57242;DHT22;43095;53.302;5.786;2024-03-17T11:57:21;11.00;81.00
57242;DHT22;43095;53.302;5.786;2024-03-17T11:59:49;11.10;80.40
57242;DHT22;43095;53.302;5.786;2024-03-17T12:02:20;11.10;80.50
57242;DHT22;43095;53.302;5.786;2024-03-17T12:05:01;11.20;80.10
57242;DHT22;43095;53.302;5.786;2024-03-17T12:07:28;11.20;80.00
57242;DHT22;43095;53.302;5.786;2024-03-17T12:09:55;11.30;80.00
57242;DHT22;43095;53.302;5.786;2024-03-17T12:12:24;11.40;79.60
57242;DHT22;43095;53.302;5.786;2024-03-17T12:15:01;11.40;79.20
57242;DHT22;43095;53.302;5.786;2024-03-17T12:17:29;11.50;78.70
57242;DHT22;43095;53.302;5.786;2024-03-17T12:19:56;11.50;78.00
57242;DHT22;43095;53.302;5.786;2024-03-17T12:22:25;11.50;77.80
57242;DHT22;43095;53.302;5.786;2024-03-17T12:24:54;11.50;77.20
57242;DHT22;43095;53.302;5.786;2024-03-17T12:27:26;11.50;76.90
57242;DHT22;43095;53.302;5.786;2024-03-17T12:30:01;11.60;76.40
57242;DHT22;43095;53.302;5.786;2024-03-17T12:32:28;11.60;76.60
57242;DHT22;43095;53.302;5.786;2024-03-17T12:34:58;11.60;76.10
57242;DHT22;43095;53.302;5.786;2024-03-17T12:37:38;11.50;75.80
57242;DHT22;43095;53.302;5.786;2024-03-17T12:40:06;11.50;75.50
57242;DHT22;43095;53.302;5.786;2024-03-17T12:42:48;11.50;75.50
57242;DHT22;43095;53.302;5.786;2024-03-17T12:45:23;11.50;75.50
57242;DHT22;43095;53.302;5.786;2024-03-17T12:47:51;11.50;75.70
57242;DHT22;43095;53.302;5.786;2024-03-17T12:50:18;11.50;75.70
57242;DHT22;43095;53.302;5.786;2024-03-17T12:52:52;11.50;75.00
57242;DHT22;43095;53.302;5.786;2024-03-17T12:55:22;11.50;75.20
57242;DHT22;43095;53.302;5.786;2024-03-17T12:58:09;11.50;74.70
57242;DHT22;43095;53.302;5.786;2024-03-17T13:01:07;11.50;73.50
57242;DHT22;43095;53.302;5.786;2024-03-17T13:03:38;11.50;73.80
57242;DHT22;43095;53.302;5.786;2024-03-17T13:06:24;11.50;73.90
57242;DHT22;43095;53.302;5.786;2024-03-17T13:08:59;11.50;73.50
57242;DHT22;43095;53.302;5.786;2024-03-17T13:11:26;11.50;73.50
57242;DHT22;43095;53.302;5.786;2024-03-17T13:14:07;11.50;73.70
57242;DHT22;43095;53.302;5.786;2024-03-17T13:16:41;11.50;73.30
57242;DHT22;43095;53.302;5.786;2024-03-17T13:19:09;11.50;72.80
57242;DHT22;43095;53.302;5.786;2024-03-17T13:21:38;11.50;72.70
57242;DHT22;43095;53.302;5.786;2024-03-17T13:24:05;11.50;72.90
57242;DHT22;43095;53.302;5.786;2024-03-17T13:26:32;11.50;73.30
57242;DHT22;43095;53.302;5.786;2024-03-17T13:29:09;11.60;73.20
57242;DHT22;43095;53.302;5.786;2024-03-17T13:31:49;11.60;73.50
57242;DHT22;43095;53.302;5.786;2024-03-17T13:34:18;11.70;73.40
57242;DHT22;43095;53.302;5.786;2024-03-17T13:36:53;11.60;73.30
57242;DHT22;43095;53.302;5.786;2024-03-17T13:39:22;11.60;73.80
57242;DHT22;43095;53.302;5.786;2024-03-17T13:42:08;11.60;74.30
57242;DHT22;43095;53.302;5.786;2024-03-17T13:44:39;11.60;74.50
57242;DHT22;43095;53.302;5.786;2024-03-17T13:47:15;11.50;74.10
57242;DHT22;43095;53.302;5.786;2024-03-17T13:49:52;11.50;74.30
57242;DHT22;43095;53.302;5.786;2024-03-17T13:52:18;11.50;74.10
57242;DHT22;43095;53.302;5.786;2024-03-17T13:54:45;11.50;74.10
57242;DHT22;43095;53.302;5.786;2024-03-17T13:57:11;11.50;73.70
57242;DHT22;43095;53.302;5.786;2024-03-17T13:59:46;11.40;73.80
57242;DHT22;43095;53.302;5.786;2024-03-17T14:02:14;11.40;73.80
57242;DHT22;43095;53.302;5.786;2024-03-17T14:04:40;11.40;74.00
57242;DHT22;43095;53.302;5.786;2024-03-17T14:07:06;11.40;74.10
57242;DHT22;43095;53.302;5.786;2024-03-17T14:09:35;11.40;74.10
57242;DHT22;43095;53.302;5.786;2024-03-17T14:12:01;11.40;74.00
57242;DHT22;43095;53.302;5.786;2024-03-17T14:14:32;11.40;74.00
57242;DHT22;43095;53.302;5.786;2024-03-17T14:16:59;11.40;73.90
57242;DHT22;43095;53.302;5.786;2024-03-17T14:19:26;11.30;73.50
57242;DHT22;43095;53.302;5.786;2024-03-17T14:21:55;11.30;73.40
57242;DHT22;43095;53.302;5.786;2024-03-17T14:24:41;11.30;73.30
57242;DHT22;43095;53.302;5.786;2024-03-17T14:27:12;11.20;73.60
57242;DHT22;43095;53.302;5.786;2024-03-17T14:29:38;11.20;74.00
57242;DHT22;43095;53.302;5.786;2024-03-17T14:32:06;11.10;73.90
57242;DHT22;43095;53.302;5.786;2024-03-17T14:34:44;11.10;74.00
57242;DHT22;43095;53.302;5.786;2024-03-17T14:37:17;11.10;74.40
57242;DHT22;43095;53.302;5.786;2024-03-17T14:39:51;11.10;74.80
57242;DHT22;43095;53.302;5.786;2024-03-17T14:42:20;11.10;75.20
57242;DHT22;43095;53.302;5.786;2024-03-17T14:44:51;11.10;75.40
57242;DHT22;43095;53.302;5.786;2024-03-17T14:47:21;11.10;75.60
57242;DHT22;43095;53.302;5.786;2024-03-17T14:49:52;11.20;75.70
57242;DHT22;43095;53.302;5.786;2024-03-17T14:52:30;11.10;75.80
57242;DHT22;43095;53.302;5.786;2024-03-17T14:55:09;11.20;75.80
57242;DHT22;43095;53.302;5.786;2024-03-17T14:57:37;11.10;75.70
57242;DHT22;43095;53.302;5.786;2024-03-17T15:00:08;11.10;75.70
57242;DHT22;43095;53.302;5.786;2024-03-17T15:02:46;11.10;75.70
57242;DHT22;43095;53.302;5.786;2024-03-17T15:05:14;11.10;75.70
57242;DHT22;43095;53.302;5.786;2024-03-17T15:07:41;11.10;75.60
57242;DHT22;43095;53.302;5.786;2024-03-17T15:10:08;11.10;75.70
57242;DHT22;43095;53.302;5.786;2024-03-17T15:12:34;11.10;75.30
57242;DHT22;43095;53.302;5.786;2024-03-17T15:15:01;11.10;75.40
57242;DHT22;43095;53.302;5.786;2024-03-17T15:17:30;11.10;75.30
57242;DHT22;43095;53.302;5.786;2024-03-17T15:19:59;11.10;75.10
57242;DHT22;43095;53.302;5.786;2024-03-17T15:22:34;11.10;75.20
57242;DHT22;43095;53.302;5.786;2024-03-17T15:25:12;11.00;75.10
57242;DHT22;43095;53.302;5.786;2024-03-17T15:27:43;11.00;75.10
57242;DHT22;43095;53.302;5.786;2024-03-17T15:30:12;11.00;75.00
57242;DHT22;43095;53.302;5.786;2024-03-17T15:32:48;11.00;74.90
57242;DHT22;43095;53.302;5.786;2024-03-17T15:35:15;10.90;75.00
57242;DHT22;43095;53.302;5.786;2024-03-17T15:37:42;10.90;75.00
57242;DHT22;43095;53.302;5.786;2024-03-17T15:40:16;10.90;75.20
57242;DHT22;43095;53.302;5.786;2024-03-17T15:42:51;10.80;75.20
57242;DHT22;43095;53.302;5.786;2024-03-17T15:45:20;10.80;75.30
57242;DHT22;43095;53.302;5.786;2024-03-17T15:47:47;10.70;75.00
57242;DHT22;43095;53.302;5.786;2024-03-17T15:50:24;10.70;75.10
57242;DHT22;43095;53.302;5.786;2024-03-17T15:52:51;10.70;75.30
57242;DHT22;43095;53.302;5.786;2024-03-17T15:55:17;10.70;75.30
57242;DHT22;43095;53.302;5.786;2024-03-17T15:57:43;10.60;75.20
57242;DHT22;43095;53.302;5.786;2024-03-17T16:00:10;10.60;75.50
57242;DHT22;43095;53.302;5.786;2024-03-17T16:02:40;10.60;75.50
57242;DHT22;43095;53.302;5.786;2024-03-17T16:05:08;10.60;75.60
57242;DHT22;43095;53.302;5.786;2024-03-17T16:07:38;10.50;75.50
57242;DHT22;43095;53.302;5.786;2024-03-17T16:10:05;10.50;75.70
57242;DHT22;43095;53.302;5.786;2024-03-17T16:12:35;10.50;75.70
57242;DHT22;43095;53.302;5.786;2024-03-17T16:15:02;10.50;75.70
57242;DHT22;43095;53.302;5.786;2024-03-17T16:17:29;10.50;75.70
57242;DHT22;43095;53.302;5.786;2024-03-17T16:19:56;10.50;75.90
57242;DHT22;43095;53.302;5.786;2024-03-17T16:22:26;10.40;75.90
57242;DHT22;43095;53.302;5.786;2024-03-17T16:24:53;10.40;76.30
57242;DHT22;43095;53.302;5.786;2024-03-17T16:27:19;10.40;76.30